Time;durP1;ratioP1;P1;durP2;ratioP2;P2;SDS_P1;SDS_P2;PMS_P1;PMS_P2;Temp;Humidity;BMP_temperature;BMP_pressure;BME280_temperature;BME280_humidity;BME280_pressure;Samples;Min_cycle;Max_cycle;Signal;HPM_P1;HPM_P2
2023/09/10 00:02:02;;;;;;;0.00;0.00;;;20.30;81.80;;;;;;5009066;28;20486;-66
2023/09/10 00:04:28;;;;;;;0.00;0.00;;;20.30;81.90;;;;;;5008965;28;20061;-67
2023/09/10 00:06:53;;;;;;;0.00;0.00;;;20.30;81.80;;;;;;5009236;28;20052;-66
2023/09/10 00:09:19;;;;;;;0.00;0.00;;;20.30;81.80;;;;;;5009321;28;20046;-66
2023/09/10 00:11:45;;;;;;;0.00;0.00;;;20.30;81.70;;;;;;5009108;28;20045;-66
2023/09/10 00:14:10;;;;;;;0.00;0.00;;;20.20;81.70;;;;;;5008432;28;20423;-66
2023/09/10 00:16:36;;;;;;;0.00;0.00;;;20.20;81.70;;;;;;5008417;28;20085;-66
2023/09/10 00:19:02;;;;;;;0.00;0.00;;;20.30;81.80;;;;;;5006052;28;20037;-66
2023/09/10 00:21:27;;;;;;;0.00;0.00;;;20.20;81.70;;;;;;4990969;28;20050;-66
2023/09/10 00:23:53;;;;;;;0.00;0.00;;;20.20;81.70;;;;;;5008882;28;20054;-66
2023/09/10 00:26:18;;;;;;;0.00;0.00;;;20.20;82.00;;;;;;5007997;28;20111;-66
2023/09/10 00:28:44;;;;;;;0.00;0.00;;;20.10;82.00;;;;;;5009001;28;20038;-66
2023/09/10 00:31:10;;;;;;;0.00;0.00;;;20.20;82.20;;;;;;5008781;28;20037;-66
2023/09/10 00:33:35;;;;;;;0.00;0.00;;;20.10;82.10;;;;;;5007677;28;20100;-66
2023/09/10 00:36:01;;;;;;;0.00;0.00;;;20.20;82.20;;;;;;5008587;28;20042;-66
2023/09/10 00:38:26;;;;;;;0.00;0.00;;;20.10;82.10;;;;;;4991449;28;20462;-66
2023/09/10 00:40:52;;;;;;;0.00;0.00;;;20.10;82.10;;;;;;5008949;28;20038;-66
2023/09/10 00:43:17;;;;;;;0.00;0.00;;;20.10;82.10;;;;;;5007841;28;20046;-66
2023/09/10 00:45:43;;;;;;;0.00;0.00;;;20.10;82.00;;;;;;4999655;28;20859;-66
2023/09/10 00:48:09;;;;;;;0.00;0.00;;;20.10;82.00;;;;;;4987962;28;20088;-66
2023/09/10 00:50:35;;;;;;;0.00;0.00;;;20.00;82.00;;;;;;5003975;28;20095;-66
2023/09/10 00:53:01;;;;;;;0.00;0.00;;;20.00;82.00;;;;;;5011560;28;20041;-66
2023/09/10 00:55:29;;;;;;;0.00;0.00;;;20.00;82.10;;;;;;5011785;28;20060;-66
2023/09/10 00:57:56;;;;;;;0.00;0.00;;;20.00;82.20;;;;;;5012265;28;20037;-66
2023/09/10 01:00:22;;;;;;;0.00;0.00;;;20.00;82.40;;;;;;5011887;28;20156;-66
2023/09/10 01:02:49;;;;;;;0.00;0.00;;;20.00;82.50;;;;;;5011559;28;20113;-67
2023/09/10 01:05:17;;;;;;;0.00;0.00;;;20.00;82.50;;;;;;5011160;28;20065;-66
2023/09/10 01:07:44;;;;;;;0.00;0.00;;;20.00;82.40;;;;;;5012160;28;20578;-67
2023/09/10 01:10:09;;;;;;;0.00;0.00;;;20.00;82.40;;;;;;5012116;28;20046;-66
2023/09/10 01:12:56;;;;;;;0.00;0.00;;;19.90;82.30;;;;;;5011442;28;20130;-66
2023/09/10 01:15:30;;;;;;;0.00;0.00;;;19.90;82.50;;;;;;5010830;28;20081;-66
2023/09/10 01:18:39;;;;;;;0.00;0.00;;;19.80;82.50;;;;;;4994365;28;20756;-66
2023/09/10 01:21:26;;;;;;;0.00;0.00;;;19.90;82.50;;;;;;4997481;28;20046;-66
2023/09/10 01:24:19;;;;;;;0.10;0.10;;;19.80;82.60;;;;;;5011423;28;20495;-66
2023/09/10 01:26:57;;;;;;;0.00;0.00;;;19.80;82.50;;;;;;5010813;28;20045;-66
2023/09/10 01:29:23;;;;;;;0.00;0.00;;;19.80;82.50;;;;;;4994432;28;20062;-67
2023/09/10 01:31:53;;;;;;;0.00;0.00;;;19.80;82.50;;;;;;5011201;28;20714;-66
2023/09/10 01:34:24;;;;;;;0.00;0.00;;;19.80;82.60;;;;;;5010952;28;20045;-66
2023/09/10 01:36:56;;;;;;;0.00;0.00;;;19.70;82.70;;;;;;5011774;28;20050;-66
2023/09/10 01:39:36;;;;;;;0.00;0.00;;;19.70;82.80;;;;;;5002072;28;20638;-66
2023/09/10 01:42:05;;;;;;;0.00;0.00;;;19.70;82.90;;;;;;5008741;28;20042;-66
2023/09/10 01:44:32;;;;;;;0.00;0.00;;;19.70;82.90;;;;;;5010953;28;20080;-66
2023/09/10 01:46:59;;;;;;;0.00;0.00;;;19.70;82.80;;;;;;5011113;28;20123;-66
2023/09/10 01:49:25;;;;;;;0.00;0.00;;;19.70;82.90;;;;;;5010946;28;20395;-66
2023/09/10 01:51:51;;;;;;;0.00;0.00;;;19.70;82.80;;;;;;5011153;28;20090;-66
2023/09/10 01:54:16;;;;;;;0.00;0.00;;;19.60;82.80;;;;;;5009687;28;20494;-67
2023/09/10 01:56:42;;;;;;;0.00;0.00;;;19.70;82.80;;;;;;5010906;28;20050;-66
2023/09/10 01:59:07;;;;;;;0.00;0.00;;;19.60;83.00;;;;;;5010686;28;20050;-66
2023/09/10 02:01:33;;;;;;;0.00;0.00;;;19.60;83.00;;;;;;5009796;28;20069;-66
2023/09/10 02:03:59;;;;;;;0.00;0.00;;;19.60;83.10;;;;;;5010993;28;20505;-66
2023/09/10 02:06:24;;;;;;;0.00;0.00;;;19.60;83.10;;;;;;5010754;28;20050;-66
2023/09/10 02:08:50;;;;;;;0.00;0.00;;;19.60;83.10;;;;;;5010568;28;20053;-66
2023/09/10 02:11:15;;;;;;;0.00;0.00;;;19.60;83.00;;;;;;5010785;28;20121;-66
2023/09/10 02:13:41;;;;;;;0.00;0.00;;;19.50;83.00;;;;;;5010382;28;20492;-66
2023/09/10 02:16:07;;;;;;;0.00;0.00;;;19.60;83.00;;;;;;5010346;28;20046;-66
2023/09/10 02:18:33;;;;;;;0.00;0.00;;;19.50;82.90;;;;;;5010385;28;20414;-66
2023/09/10 02:20:58;;;;;;;0.00;0.00;;;19.50;82.90;;;;;;5010689;28;20042;-66
2023/09/10 02:23:24;;;;;;;0.00;0.00;;;19.50;83.10;;;;;;5010275;28;20034;-66
2023/09/10 02:25:51;;;;;;;0.00;0.00;;;19.50;83.30;;;;;;5010499;28;20073;-66
2023/09/10 02:28:23;;;;;;;0.00;0.00;;;19.40;83.50;;;;;;5010687;28;20108;-66
2023/09/10 02:30:48;;;;;;;;;;;19.50;83.50;;;;;;4993495;28;20053;-66
2023/09/10 02:33:14;;;;;;;0.00;0.00;;;19.30;83.40;;;;;;5010473;28;19975;-66
2023/09/10 02:35:40;;;;;;;0.00;0.00;;;19.40;83.40;;;;;;5009530;28;20060;-66
2023/09/10 02:38:05;;;;;;;0.00;0.00;;;19.40;83.40;;;;;;5009573;28;20050;-65
2023/09/10 02:40:31;;;;;;;0.00;0.00;;;19.30;83.30;;;;;;5005752;28;20518;-65
2023/09/10 02:42:56;;;;;;;0.00;0.00;;;19.30;83.30;;;;;;4990967;28;20042;-66
2023/09/10 02:45:22;;;;;;;0.00;0.00;;;19.30;83.20;;;;;;5007034;28;20050;-66
2023/09/10 02:47:47;;;;;;;0.00;0.00;;;19.30;83.10;;;;;;5010325;28;20108;-65
2023/09/10 02:50:13;;;;;;;0.00;0.00;;;19.20;83.20;;;;;;5010319;28;20084;-66
2023/09/10 02:52:40;;;;;;;0.00;0.00;;;19.20;83.30;;;;;;4976062;28;20046;-66
2023/09/10 02:55:06;;;;;;;0.00;0.00;;;19.10;83.30;;;;;;5009733;28;20645;-65
2023/09/10 02:57:32;;;;;;;0.00;0.00;;;19.10;83.40;;;;;;5010006;28;20058;-66
2023/09/10 02:59:57;;;;;;;0.10;0.10;;;19.10;83.60;;;;;;4996493;28;20053;-65
2023/09/10 03:02:23;;;;;;;0.00;0.00;;;19.10;83.50;;;;;;4991909;28;20182;-66
2023/09/10 03:04:48;;;;;;;0.00;0.00;;;19.10;83.60;;;;;;4995996;28;20045;-66
2023/09/10 03:07:14;;;;;;;0.00;0.00;;;19.10;83.60;;;;;;5007838;28;20056;-65
2023/09/10 03:09:40;;;;;;;0.00;0.00;;;19.10;83.80;;;;;;5000702;28;20151;-66
2023/09/10 03:12:27;;;;;;;0.00;0.00;;;19.00;83.80;;;;;;5000726;28;20074;-66
2023/09/10 03:14:53;;;;;;;0.00;0.00;;;19.10;83.80;;;;;;4997554;28;20037;-66
2023/09/10 03:17:19;;;;;;;0.00;0.00;;;19.10;83.70;;;;;;5001417;28;20035;-65
2023/09/10 03:19:45;;;;;;;0.00;0.00;;;19.10;83.70;;;;;;4989363;28;20046;-66
2023/09/10 03:22:11;;;;;;;0.00;0.00;;;19.00;83.80;;;;;;4993241;28;20096;-66
2023/09/10 03:24:37;;;;;;;0.00;0.00;;;19.00;83.70;;;;;;4990452;28;20491;-66
2023/09/10 03:27:03;;;;;;;0.00;0.00;;;19.00;83.80;;;;;;4989650;28;20041;-65
2023/09/10 03:29:30;;;;;;;0.00;0.00;;;19.00;83.70;;;;;;4989046;28;20042;-66
2023/09/10 03:31:56;;;;;;;0.00;0.00;;;19.00;83.70;;;;;;4989227;28;20069;-65
2023/09/10 03:34:22;;;;;;;0.00;0.00;;;19.00;83.70;;;;;;4992693;28;20564;-65
2023/09/10 03:36:47;;;;;;;0.00;0.00;;;18.90;83.70;;;;;;4996446;28;20050;-66
2023/09/10 03:39:13;;;;;;;0.00;0.00;;;18.90;83.70;;;;;;4992335;28;20046;-65
2023/09/10 03:41:39;;;;;;;0.00;0.00;;;18.90;83.70;;;;;;4993130;28;20046;-65
2023/09/10 03:44:04;;;;;;;0.00;0.00;;;18.90;83.70;;;;;;5002169;28;20132;-65
2023/09/10 03:46:30;;;;;;;0.00;0.00;;;18.80;83.80;;;;;;4999704;28;20081;-65
2023/09/10 03:48:55;;;;;;;0.00;0.00;;;18.90;83.90;;;;;;4999547;28;20161;-66
2023/09/10 03:51:21;;;;;;;0.00;0.00;;;18.90;83.90;;;;;;5000059;28;20042;-65
2023/09/10 03:53:47;;;;;;;0.00;0.00;;;18.90;83.90;;;;;;5001453;28;20042;-65
2023/09/10 03:56:14;;;;;;;0.00;0.00;;;18.90;83.90;;;;;;4988246;28;20042;-65
2023/09/10 03:58:39;;;;;;;0.00;0.00;;;18.80;83.90;;;;;;5007011;28;20935;-66
2023/09/10 04:01:05;;;;;;;2.92;0.55;;;18.80;84.00;;;;;;4973170;28;20057;-65
2023/09/10 04:03:30;;;;;;;0.00;0.00;;;18.90;84.10;;;;;;4990456;28;20042;-66
2023/09/10 04:05:56;;;;;;;0.00;0.00;;;18.90;84.00;;;;;;5001606;28;20137;-66
2023/09/10 04:08:21;;;;;;;0.00;0.00;;;18.80;84.10;;;;;;4997977;28;20046;-65
2023/09/10 04:10:47;;;;;;;0.00;0.00;;;18.90;84.10;;;;;;5001884;28;20130;-65
2023/09/10 04:13:13;;;;;;;0.00;0.00;;;18.90;84.10;;;;;;4989237;28;20046;-65
2023/09/10 04:15:38;;;;;;;0.00;0.00;;;18.90;84.10;;;;;;4997799;28;20434;-67
2023/09/10 04:18:07;;;;;;;0.13;0.13;;;18.90;84.00;;;;;;5007074;28;20053;-66
2023/09/10 04:20:33;;;;;;;0.00;0.00;;;18.90;84.00;;;;;;4980260;28;20458;-66
2023/09/10 04:22:58;;;;;;;0.00;0.00;;;18.80;84.00;;;;;;5000793;28;20042;-66
2023/09/10 04:25:24;;;;;;;0.00;0.00;;;18.90;84.20;;;;;;5004381;28;20523;-66
2023/09/10 04:27:50;;;;;;;0.00;0.00;;;18.80;84.20;;;;;;4998375;28;20117;-66
2023/09/10 04:30:15;;;;;;;0.00;0.00;;;18.90;84.30;;;;;;5002569;28;20038;-66
2023/09/10 04:32:41;;;;;;;0.00;0.00;;;18.90;84.30;;;;;;5007308;28;20107;-66
2023/09/10 04:35:07;;;;;;;0.00;0.00;;;18.80;84.30;;;;;;4998344;28;20073;-66
2023/09/10 04:37:34;;;;;;;0.00;0.00;;;18.90;84.40;;;;;;5004107;28;20137;-66
2023/09/10 04:40:06;;;;;;;0.00;0.00;;;18.90;84.30;;;;;;5002761;28;20533;-66
2023/09/10 04:42:32;;;;;;;0.00;0.00;;;18.90;84.40;;;;;;5011228;28;20069;-66
2023/09/10 04:44:57;;;;;;;0.00;0.00;;;19.00;84.40;;;;;;4993118;28;20086;-66
2023/09/10 04:47:23;;;;;;;0.00;0.00;;;18.90;84.40;;;;;;4997505;28;20038;-66
2023/09/10 04:49:48;;;;;;;0.00;0.00;;;18.90;84.40;;;;;;4996154;28;20050;-66
2023/09/10 04:52:15;;;;;;;0.20;0.20;;;18.90;84.40;;;;;;4992007;28;20054;-66
2023/09/10 04:54:41;;;;;;;0.00;0.00;;;18.90;84.30;;;;;;4997845;28;20074;-67
2023/09/10 04:57:07;;;;;;;0.00;0.00;;;18.90;84.20;;;;;;4995923;28;20108;-66
2023/09/10 04:59:33;;;;;;;0.00;0.00;;;18.90;84.20;;;;;;4995145;28;20522;-66
2023/09/10 05:02:00;;;;;;;0.00;0.00;;;18.90;84.20;;;;;;5009958;28;20075;-66
2023/09/10 05:04:26;;;;;;;0.00;0.00;;;18.90;84.20;;;;;;5010083;28;20073;-66
2023/09/10 05:06:51;;;;;;;0.00;0.00;;;18.90;84.20;;;;;;4998356;28;20136;-66
2023/09/10 05:09:17;;;;;;;0.00;0.00;;;18.90;84.30;;;;;;4993998;28;20577;-66
2023/09/10 05:11:42;;;;;;;0.00;0.00;;;18.90;84.20;;;;;;4996686;28;20049;-66
2023/09/10 05:14:08;;;;;;;0.00;0.00;;;18.90;84.30;;;;;;5004383;28;20049;-67
2023/09/10 05:16:34;;;;;;;0.00;0.00;;;18.90;84.50;;;;;;4968219;28;20125;-66
2023/09/10 05:18:59;;;;;;;0.00;0.00;;;18.80;84.40;;;;;;5001554;28;20038;-65
2023/09/10 05:21:25;;;;;;;0.00;0.00;;;18.90;84.50;;;;;;5005568;28;20073;-67
2023/09/10 05:23:50;;;;;;;0.00;0.00;;;18.90;84.40;;;;;;5002579;28;20046;-67
2023/09/10 05:26:16;;;;;;;0.10;0.10;;;18.80;84.40;;;;;;5007602;28;20038;-67
2023/09/10 05:28:41;;;;;;;0.00;0.00;;;18.80;84.30;;;;;;4993888;28;20042;-67
2023/09/10 05:31:08;;;;;;;0.00;0.00;;;18.80;84.30;;;;;;4992607;28;20042;-66
2023/09/10 05:33:34;;;;;;;0.00;0.00;;;18.80;84.40;;;;;;4999459;28;20045;-66
2023/09/10 05:36:00;;;;;;;0.00;0.00;;;18.80;84.50;;;;;;4991691;28;20474;-66
2023/09/10 05:38:26;;;;;;;0.00;0.00;;;18.80;84.50;;;;;;5003556;28;20584;-67
2023/09/10 05:40:52;;;;;;;0.00;0.00;;;18.80;84.50;;;;;;5011499;28;20042;-66
2023/09/10 05:43:18;;;;;;;0.00;0.00;;;18.80;84.70;;;;;;5010995;28;20042;-67
2023/09/10 05:45:47;;;;;;;0.00;0.00;;;18.80;84.70;;;;;;5011015;28;20069;-67
2023/09/10 05:48:12;;;;;;;0.00;0.00;;;18.90;84.70;;;;;;4993834;28;20062;-67
2023/09/10 05:50:40;;;;;;;0.00;0.00;;;18.90;84.70;;;;;;5011032;28;20045;-67
2023/09/10 05:53:06;;;;;;;0.00;0.00;;;18.90;84.70;;;;;;5011162;28;20041;-66
2023/09/10 05:55:32;;;;;;;0.15;0.15;;;18.90;84.80;;;;;;5010918;28;20095;-67
2023/09/10 05:57:57;;;;;;;0.00;0.00;;;18.90;84.80;;;;;;5010576;28;20038;-66
2023/09/10 06:00:23;;;;;;;0.00;0.00;;;19.00;84.90;;;;;;5008395;28;20125;-66
2023/09/10 06:02:49;;;;;;;0.00;0.00;;;19.00;84.90;;;;;;5006422;28;20129;-66
2023/09/10 06:05:16;;;;;;;0.00;0.00;;;19.00;84.80;;;;;;5011142;28;20045;-66
2023/09/10 06:07:42;;;;;;;0.00;0.00;;;19.00;84.80;;;;;;5009757;28;20042;-66
2023/09/10 06:10:09;;;;;;;0.00;0.00;;;19.10;84.80;;;;;;5011403;28;20407;-66
2023/09/10 06:12:38;;;;;;;0.00;0.00;;;19.10;84.80;;;;;;5009189;28;20121;-66
2023/09/10 06:15:05;;;;;;;0.00;0.00;;;19.10;85.00;;;;;;5010840;28;20052;-66
2023/09/10 06:17:32;;;;;;;0.00;0.00;;;19.20;85.00;;;;;;5006712;28;20121;-66
2023/09/10 06:19:57;;;;;;;0.00;0.00;;;19.20;84.90;;;;;;5002701;28;20046;-66
2023/09/10 06:22:23;;;;;;;0.00;0.00;;;19.30;84.90;;;;;;4992691;28;20433;-66
2023/09/10 06:24:48;;;;;;;0.00;0.00;;;19.30;84.90;;;;;;5010035;28;20048;-66
2023/09/10 06:27:14;;;;;;;0.00;0.00;;;19.40;84.90;;;;;;5008734;28;20469;-66
2023/09/10 06:29:39;;;;;;;0.00;0.00;;;19.30;84.80;;;;;;5009890;28;20053;-67
2023/09/10 06:32:05;;;;;;;0.00;0.00;;;19.40;84.80;;;;;;4992386;28;20077;-67
2023/09/10 06:34:31;;;;;;;0.10;0.10;;;19.50;84.80;;;;;;5009291;28;20092;-66
2023/09/10 06:36:56;;;;;;;0.00;0.00;;;19.50;84.60;;;;;;5009577;28;20050;-66
2023/09/10 06:39:22;;;;;;;0.10;0.10;;;19.50;84.70;;;;;;5006608;28;20052;-66
2023/09/10 06:41:48;;;;;;;0.00;0.00;;;19.60;84.60;;;;;;5009404;28;20511;-68
2023/09/10 06:44:13;;;;;;;0.65;0.47;;;19.70;86.20;;;;;;5010090;28;20046;-65
2023/09/10 06:46:39;;;;;;;0.00;0.00;;;19.70;85.50;;;;;;5004981;28;20050;-66
2023/09/10 06:49:04;;;;;;;0.00;0.00;;;19.70;85.20;;;;;;5005818;28;20085;-67
2023/09/10 06:51:30;;;;;;;0.63;0.52;;;19.80;85.80;;;;;;5009363;28;20125;-69
2023/09/10 06:53:56;;;;;;;0.00;0.00;;;19.90;85.40;;;;;;5005914;28;20046;-67
2023/09/10 06:56:21;;;;;;;0.25;0.22;;;20.00;85.20;;;;;;4994740;28;20093;-67
2023/09/10 06:58:47;;;;;;;0.00;0.00;;;20.00;85.20;;;;;;5007826;28;20058;-67
2023/09/10 07:01:18;;;;;;;0.22;0.17;;;20.00;85.20;;;;;;5004878;28;20631;-68
2023/09/10 07:03:45;;;;;;;0.00;0.00;;;20.10;85.00;;;;;;5007704;28;20054;-67
2023/09/10 07:06:10;;;;;;;0.00;0.00;;;20.10;85.00;;;;;;4990383;28;20053;-67
2023/09/10 07:08:36;;;;;;;0.10;0.03;;;20.10;85.30;;;;;;5008062;28;20054;-69
2023/09/10 07:11:02;;;;;;;0.25;0.25;;;20.20;85.20;;;;;;4991091;28;20124;-69
2023/09/10 07:13:29;;;;;;;0.00;0.00;;;20.30;84.90;;;;;;4991792;28;20068;-68
2023/09/10 07:15:55;;;;;;;0.00;0.00;;;20.20;84.80;;;;;;5009446;28;20054;-69
2023/09/10 07:18:21;;;;;;;0.00;0.00;;;20.30;84.80;;;;;;5004931;28;20133;-69
2023/09/10 07:20:46;;;;;;;8.05;0.65;;;20.30;84.70;;;;;;5008549;28;20049;-69
2023/09/10 07:23:12;;;;;;;0.00;0.00;;;20.30;84.80;;;;;;5004065;28;20104;-69
2023/09/10 07:25:39;;;;;;;0.00;0.00;;;20.40;84.70;;;;;;5002652;28;20065;-69
2023/09/10 07:28:06;;;;;;;0.00;0.00;;;20.50;85.00;;;;;;4988502;28;20230;-69
2023/09/10 07:30:31;;;;;;;0.00;0.00;;;20.50;85.00;;;;;;4999874;28;20168;-69
2023/09/10 07:32:57;;;;;;;0.00;0.00;;;20.50;84.90;;;;;;5007207;28;20492;-68
2023/09/10 07:35:23;;;;;;;0.00;0.00;;;20.60;84.90;;;;;;5008563;28;20034;-69
2023/09/10 07:37:48;;;;;;;0.00;0.00;;;20.60;85.10;;;;;;4991242;28;20057;-68
2023/09/10 07:40:14;;;;;;;0.05;0.05;;;20.60;85.30;;;;;;5008130;28;20054;-69
2023/09/10 07:42:40;;;;;;;0.00;0.00;;;20.70;85.30;;;;;;5008129;28;20065;-69
2023/09/10 07:45:13;;;;;;;0.00;0.00;;;20.80;85.30;;;;;;5008287;28;20098;-69
2023/09/10 07:47:40;;;;;;;0.00;0.00;;;20.80;85.30;;;;;;5007389;28;20082;-69
2023/09/10 07:50:06;;;;;;;0.00;0.00;;;20.90;85.40;;;;;;5008653;28;20050;-73
2023/09/10 07:52:32;;;;;;;0.00;0.00;;;21.00;85.60;;;;;;4969978;28;20041;-72
2023/09/10 07:54:57;;;;;;;0.00;0.00;;;21.10;85.40;;;;;;5007489;28;20064;-72
2023/09/10 07:57:24;;;;;;;0.00;0.00;;;21.10;85.40;;;;;;4989621;28;20038;-73
2023/09/10 07:59:50;;;;;;;0.00;0.00;;;21.20;85.30;;;;;;5010881;28;20157;-72
2023/09/10 08:02:16;;;;;;;0.10;0.10;;;21.30;85.30;;;;;;5002067;28;20128;-72
2023/09/10 08:04:42;;;;;;;0.00;0.00;;;21.40;85.20;;;;;;4997515;28;20081;-73
2023/09/10 08:07:09;;;;;;;0.00;0.00;;;21.40;85.10;;;;;;5009808;28;20062;-72
2023/09/10 08:09:35;;;;;;;0.17;0.17;;;21.50;85.10;;;;;;5013227;28;20049;-72
2023/09/10 08:12:00;;;;;;;0.00;0.00;;;21.50;84.90;;;;;;5004404;28;20125;-71
2023/09/10 08:14:26;;;;;;;0.00;0.00;;;21.50;84.60;;;;;;5012918;28;20069;-71
2023/09/10 08:16:51;;;;;;;0.00;0.00;;;21.60;84.20;;;;;;5012722;28;20042;-65
2023/09/10 08:19:17;;;;;;;0.00;0.00;;;21.80;83.90;;;;;;5012913;28;20042;-65
2023/09/10 08:21:43;;;;;;;0.00;0.00;;;22.00;83.60;;;;;;5013045;28;20463;-64
2023/09/10 08:24:08;;;;;;;0.00;0.00;;;22.10;83.30;;;;;;5005328;28;20089;-73
2023/09/10 08:26:34;;;;;;;0.25;0.20;;;22.20;83.10;;;;;;5011490;28;20056;-68
2023/09/10 08:28:59;;;;;;;0.00;0.00;;;22.30;83.10;;;;;;5011819;28;20525;-68
2023/09/10 08:31:25;;;;;;;0.03;0.03;;;22.40;83.00;;;;;;4994294;28;20049;-68
2023/09/10 08:33:51;;;;;;;0.00;0.00;;;22.40;82.30;;;;;;4991929;28;20073;-70
2023/09/10 08:36:16;;;;;;;0.10;0.10;;;22.40;82.30;;;;;;5011675;28;20046;-69
2023/09/10 08:38:42;;;;;;;0.13;0.10;;;22.50;82.40;;;;;;5001247;28;20173;-69
2023/09/10 08:41:30;;;;;;;0.10;0.10;;;22.50;82.30;;;;;;5004855;28;20042;-69
2023/09/10 08:43:57;;;;;;;0.00;0.00;;;22.50;82.20;;;;;;5011248;28;20042;-70
2023/09/10 08:46:30;;;;;;;0.30;0.30;;;22.50;82.00;;;;;;5012364;28;20050;-69
2023/09/10 08:48:56;;;;;;;0.15;0.15;;;22.60;81.90;;;;;;5011798;28;20041;-69
2023/09/10 08:51:23;;;;;;;0.10;0.10;;;22.70;81.80;;;;;;5007840;28;20069;-68
2023/09/10 08:53:50;;;;;;;2.40;0.55;;;22.70;81.80;;;;;;5008592;28;20038;-70
2023/09/10 08:56:16;;;;;;;0.10;0.10;;;22.80;81.80;;;;;;5010980;28;20491;-69
2023/09/10 08:58:43;;;;;;;0.00;0.00;;;22.90;81.70;;;;;;4999375;28;20048;-69
2023/09/10 09:01:10;;;;;;;0.00;0.00;;;23.00;81.60;;;;;;5010185;28;20514;-69
2023/09/10 09:03:36;;;;;;;0.00;0.00;;;23.00;81.30;;;;;;5011115;28;20077;-69
2023/09/10 09:06:03;;;;;;;0.00;0.00;;;23.00;81.20;;;;;;4993042;28;20081;-68
2023/09/10 09:08:36;;;;;;;0.00;0.00;;;23.10;81.10;;;;;;5010795;28;20049;-69
2023/09/10 09:11:04;;;;;;;0.00;0.00;;;23.30;81.10;;;;;;5011461;28;20080;-69
2023/09/10 09:13:40;;;;;;;0.00;0.00;;;23.30;81.10;;;;;;5006854;28;20100;-69
2023/09/10 09:16:07;;;;;;;0.05;0.05;;;23.40;81.10;;;;;;4999066;28;20393;-69
2023/09/10 09:18:35;;;;;;;0.00;0.00;;;23.50;81.00;;;;;;4992725;28;20101;-69
2023/09/10 09:21:11;;;;;;;0.43;0.43;;;23.60;80.80;;;;;;4996899;28;20587;-68
2023/09/10 09:23:49;;;;;;;0.00;0.00;;;23.60;80.70;;;;;;4992039;28;20071;-68
2023/09/10 09:26:14;;;;;;;0.38;0.35;;;23.70;80.40;;;;;;4991763;28;20112;-68
2023/09/10 09:28:40;;;;;;;0.00;0.00;;;23.80;80.20;;;;;;5005925;28;20457;-69
2023/09/10 09:31:09;;;;;;;0.00;0.00;;;23.90;79.10;;;;;;5010596;28;20053;-67
2023/09/10 09:33:38;;;;;;;0.10;0.10;;;24.00;79.30;;;;;;5006945;28;20465;-68
2023/09/10 09:36:11;;;;;;;0.10;0.10;;;24.00;79.40;;;;;;5003998;28;20081;-68
2023/09/10 09:38:43;;;;;;;0.08;0.08;;;24.10;79.30;;;;;;5006223;28;20050;-68
2023/09/10 09:41:08;;;;;;;0.00;0.00;;;24.20;79.30;;;;;;4994302;28;20491;-67
2023/09/10 09:43:35;;;;;;;0.15;0.15;;;24.20;79.20;;;;;;4997861;28;20053;-67
2023/09/10 09:46:01;;;;;;;0.00;0.00;;;24.30;78.70;;;;;;4998531;28;20046;-68
2023/09/10 09:48:27;;;;;;;0.13;0.13;;;24.40;78.10;;;;;;5002774;28;20522;-69
2023/09/10 09:50:54;;;;;;;0.00;0.00;;;24.50;77.90;;;;;;5010741;28;20041;-69
2023/09/10 09:53:24;;;;;;;0.10;0.10;;;24.50;78.00;;;;;;5010798;28;20598;-68
2023/09/10 09:56:00;;;;;;;0.00;0.00;;;24.60;77.30;;;;;;5010355;28;20056;-69
2023/09/10 09:58:27;;;;;;;0.00;0.00;;;24.60;78.00;;;;;;4995562;28;20061;-69
2023/09/10 10:00:53;;;;;;;0.00;0.00;;;24.70;78.10;;;;;;5010837;28;20052;-69
2023/09/10 10:03:20;;;;;;;0.10;0.10;;;24.80;78.10;;;;;;5008340;28;20054;-69
2023/09/10 10:05:53;;;;;;;0.00;0.00;;;24.90;77.70;;;;;;5000609;28;20042;-68
2023/09/10 10:08:24;;;;;;;0.00;0.00;;;24.90;77.70;;;;;;4996393;28;20062;-69
2023/09/10 10:10:50;;;;;;;0.00;0.00;;;25.00;77.50;;;;;;5010910;28;20057;-68
2023/09/10 10:13:18;;;;;;;0.00;0.00;;;25.00;77.20;;;;;;4996896;28;20463;-68
2023/09/10 10:15:48;;;;;;;0.00;0.00;;;25.10;77.50;;;;;;4990795;28;20137;-68
2023/09/10 10:18:16;;;;;;;0.10;0.10;;;25.10;76.80;;;;;;5003196;28;20526;-68
2023/09/10 10:20:46;;;;;;;0.32;0.30;;;25.20;76.40;;;;;;5006030;28;20038;-69
2023/09/10 10:23:13;;;;;;;0.00;0.00;;;25.20;76.80;;;;;;5009106;28;20072;-69
2023/09/10 10:25:43;;;;;;;0.00;0.00;;;25.30;76.80;;;;;;5007904;28;20089;-69
2023/09/10 10:28:09;;;;;;;0.00;0.00;;;25.40;76.80;;;;;;5005325;28;20514;-68
2023/09/10 10:31:02;;;;;;;0.00;0.00;;;25.50;76.50;;;;;;5006558;28;20073;-69
2023/09/10 10:33:29;;;;;;;0.10;0.10;;;25.50;76.10;;;;;;4989464;28;20046;-68
2023/09/10 10:36:07;;;;;;;0.00;0.00;;;25.60;75.90;;;;;;5009243;28;20050;-70
2023/09/10 10:38:36;;;;;;;0.03;0.03;;;25.70;75.60;;;;;;4997682;28;20086;-68
2023/09/10 10:41:13;;;;;;;0.00;0.00;;;25.80;75.30;;;;;;4991339;28;20058;-68
2023/09/10 10:43:50;;;;;;;0.00;0.00;;;25.80;75.00;;;;;;4990077;28;20665;-67
2023/09/10 10:46:18;;;;;;;0.00;0.00;;;25.90;75.50;;;;;;4973055;28;20756;-68
2023/09/10 10:48:44;;;;;;;0.00;0.00;;;26.00;75.00;;;;;;4990036;28;20185;-68
2023/09/10 10:51:16;;;;;;;0.10;0.10;;;26.00;74.70;;;;;;4980767;28;20153;-68
2023/09/10 10:53:42;;;;;;;0.00;0.00;;;26.00;73.90;;;;;;4974635;28;20050;-68
2023/09/10 10:56:09;;;;;;;0.00;0.00;;;26.00;74.30;;;;;;5009235;28;20052;-67
2023/09/10 10:58:39;;;;;;;0.00;0.00;;;26.10;73.60;;;;;;5001589;28;20057;-67
2023/09/10 11:01:05;;;;;;;0.00;0.00;;;26.20;73.80;;;;;;5009683;28;20049;-68
2023/09/10 11:03:32;;;;;;;0.00;0.00;;;26.20;73.70;;;;;;5008908;28;20050;-68
2023/09/10 11:06:04;;;;;;;0.00;0.00;;;26.30;73.80;;;;;;5009200;28;20562;-68
2023/09/10 11:08:41;;;;;;;0.00;0.00;;;26.30;74.20;;;;;;5002795;28;20402;-67
2023/09/10 11:11:08;;;;;;;0.10;0.10;;;26.40;73.60;;;;;;5005524;28;20053;-67
2023/09/10 11:13:54;;;;;;;0.15;0.15;;;26.40;73.70;;;;;;4999611;28;20050;-67
2023/09/10 11:16:19;;;;;;;0.08;0.08;;;26.50;73.10;;;;;;5005402;28;20041;-67
2023/09/10 11:18:46;;;;;;;0.00;0.00;;;26.50;73.10;;;;;;5003494;28;20048;-67
2023/09/10 11:21:13;;;;;;;0.00;0.00;;;26.60;73.20;;;;;;4988714;28;20060;-68
2023/09/10 11:23:46;;;;;;;0.00;0.00;;;26.60;73.80;;;;;;4997177;28;20069;-67
2023/09/10 11:26:14;;;;;;;0.00;0.00;;;26.70;74.10;;;;;;5009447;28;20099;-67
2023/09/10 11:28:44;;;;;;;0.00;0.00;;;26.80;73.60;;;;;;5002541;28;20049;-68
2023/09/10 11:31:28;;;;;;;0.00;0.00;;;26.80;73.20;;;;;;5001243;28;20125;-66
2023/09/10 11:33:57;;;;;;;0.00;0.00;;;26.90;73.10;;;;;;4998838;28;20076;-68
2023/09/10 11:36:24;;;;;;;0.08;0.08;;;27.00;73.10;;;;;;5008964;28;21020;-67
2023/09/10 11:38:53;;;;;;;0.00;0.00;;;27.00;72.60;;;;;;4987384;28;20069;-67
2023/09/10 11:41:20;;;;;;;0.00;0.00;;;27.00;72.50;;;;;;5008850;28;20514;-67
2023/09/10 11:43:49;;;;;;;0.00;0.00;;;27.00;72.20;;;;;;5008950;28;20037;-67
2023/09/10 11:46:14;;;;;;;0.10;0.10;;;27.10;72.40;;;;;;5008923;28;20057;-67
2023/09/10 11:48:40;;;;;;;0.00;0.00;;;27.10;72.10;;;;;;5007137;28;20044;-68
2023/09/10 11:51:06;;;;;;;0.00;0.00;;;27.10;72.50;;;;;;5000609;28;20057;-68
2023/09/10 11:53:33;;;;;;;0.00;0.00;;;27.20;72.40;;;;;;5007613;28;20075;-67
2023/09/10 11:55:59;;;;;;;0.00;0.00;;;27.30;71.80;;;;;;5000080;28;20069;-67
2023/09/10 11:58:26;;;;;;;0.00;0.00;;;27.30;72.00;;;;;;5006223;28;20038;-67
2023/09/10 12:00:52;;;;;;;0.00;0.00;;;27.40;71.70;;;;;;5005445;28;20578;-67
2023/09/10 12:03:17;;;;;;;0.00;0.00;;;27.50;71.40;;;;;;4987728;28;20045;-67
2023/09/10 12:05:43;;;;;;;0.00;0.00;;;27.50;71.20;;;;;;5001241;28;20486;-67
2023/09/10 12:08:08;;;;;;;0.00;0.00;;;27.60;71.60;;;;;;4993685;28;20038;-67
2023/09/10 12:10:35;;;;;;;0.00;0.00;;;27.60;70.80;;;;;;5001232;28;20467;-67
2023/09/10 12:13:03;;;;;;;0.00;0.00;;;27.70;70.70;;;;;;4981378;28;20137;-67
2023/09/10 12:15:31;;;;;;;0.08;0.08;;;27.80;71.10;;;;;;4997507;28;20073;-67
2023/09/10 12:17:59;;;;;;;0.00;0.00;;;27.90;71.60;;;;;;5005269;28;20038;-67
2023/09/10 12:20:26;;;;;;;0.00;0.00;;;28.00;71.00;;;;;;4998512;28;20495;-67
2023/09/10 12:22:52;;;;;;;0.45;0.38;;;28.00;70.00;;;;;;4988997;28;20034;-67
2023/09/10 12:25:18;;;;;;;0.00;0.00;;;28.00;69.20;;;;;;5003920;28;20402;-66
2023/09/10 12:27:44;;;;;;;0.00;0.00;;;28.10;69.20;;;;;;5006627;28;20042;-67
2023/09/10 12:30:10;;;;;;;0.10;0.10;;;28.10;69.80;;;;;;5005809;28;20053;-67
2023/09/10 12:32:36;;;;;;;0.00;0.00;;;28.20;70.20;;;;;;4988632;28;20462;-67
2023/09/10 12:35:02;;;;;;;0.05;0.05;;;28.20;68.10;;;;;;4982483;28;20054;-67
2023/09/10 12:37:27;;;;;;;0.00;0.00;;;28.30;68.80;;;;;;4989568;28;20521;-67
2023/09/10 12:39:53;;;;;;;0.82;0.43;;;28.30;69.00;;;;;;5005864;28;20415;-67
2023/09/10 12:42:19;;;;;;;0.00;0.00;;;28.40;69.20;;;;;;5000463;28;20046;-67
2023/09/10 12:44:44;;;;;;;0.00;0.00;;;28.50;68.80;;;;;;5006185;28;20034;-67
2023/09/10 12:47:11;;;;;;;0.00;0.00;;;28.50;69.40;;;;;;5008235;28;20129;-67
2023/09/10 12:49:38;;;;;;;0.00;0.00;;;28.70;69.60;;;;;;5006275;28;20132;-67